Home > Products > Valid Products > TAF

000
FTUS46 KPQR 032330
TAFONP
TAF
KONP 032330Z 0400/0424 34015G22KT 5SM HZ SKC
     FM040400 34008KT 5SM BR SKC
     FM040600 29005KT 4SM BR OVC005
     FM041300 VRB03KT 2SM BR OVC004=



000
FTUS46 KPQR 032330
TAFONP
TAF
KONP 032330Z 0400/0424 34015G22KT 5SM HZ SKC
     FM040400 34008KT 5SM BR SKC
     FM040600 29005KT 4SM BR OVC005
     FM041300 VRB03KT 2SM BR OVC004=



000
FTUS46 KPQR 032330
TAFSLE
TAF
KSLE 032330Z 0400/0424 35011KT P6SM SKC
     FM040500 VRB03KT P6SM SKC=



000
FTUS46 KPQR 032330
TAFPDX
TAF
KPDX 032330Z 0400/0424 32012KT P6SM SKC
     FM040500 33004KT P6SM SKC
     FM041600 29007KT P6SM SKC=



000
FTUS46 KPQR 032330
TAFAST
TAF
KAST 032330Z 0400/0424 31009KT P6SM SKC
     FM040500 29005KT P6SM BKN007
     FM040700 29006KT 6SM BR OVC007=



000
FTUS46 KPQR 032330
TAFEUG
TAF
KEUG 032330Z 0400/0424 36012KT P6SM SKC
     FM040400 33005KT P6SM SKC=



000
FTUS46 KPQR 032330
TAFPDX
TAF
KPDX 032330Z 0400/0424 32012KT P6SM SKC
     FM040500 33004KT P6SM SKC
     FM041600 29007KT P6SM SKC=



000
FTUS46 KPQR 032330
TAFEUG
TAF
KEUG 032330Z 0400/0424 36012KT P6SM SKC
     FM040400 33005KT P6SM SKC=



000
FTUS46 KPQR 032330
TAFSLE
TAF
KSLE 032330Z 0400/0424 35011KT P6SM SKC
     FM040500 VRB03KT P6SM SKC=



000
FTUS46 KPQR 032330
TAFHIO
TAF
KHIO 032330Z 0400/0424 32013KT P6SM SKC
     FM040400 30008KT P6SM SKC
     FM040700 VRB03KT P6SM SKC=



000
FTUS46 KPQR 032330
TAFTTD
TAF
KTTD 032330Z 0400/0424 26007KT P6SM SKC
     FM040600 VRB03KT P6SM SKC=



000
FTUS46 KPQR 032330
TAFAST
TAF
KAST 032330Z 0400/0424 31009KT P6SM SKC
     FM040500 29005KT P6SM BKN007
     FM040700 29006KT 6SM BR OVC007=



000
FTUS46 KPQR 032330
TAFHIO
TAF
KHIO 032330Z 0400/0424 32013KT P6SM SKC
     FM040400 30008KT P6SM SKC
     FM040700 VRB03KT P6SM SKC=



000
FTUS46 KPQR 032330
TAFTTD
TAF
KTTD 032330Z 0400/0424 26007KT P6SM SKC
     FM040600 VRB03KT P6SM SKC=



000
FTUS46 KPQR 032050 AAA
TAFPDX
TAF AMD
KPDX 032050Z 0321/0418 30007KT P6SM SKC
     FM032200 32012KT P6SM SKC
     FM040500 33004KT P6SM SKC=



000
FTUS46 KPQR 032050 AAA
TAFPDX
TAF AMD
KPDX 032050Z 0321/0418 30007KT P6SM SKC
     FM032200 32012KT P6SM SKC
     FM040500 33004KT P6SM SKC=



000
FTUS46 KPQR 032050 AAA
TAFPDX
TAF AMD
KPDX 032050Z 0321/0418 30007KT P6SM SKC
     FM032200 32012KT P6SM SKC
     FM040500 33004KT P6SM SKC=



000
FTUS46 KPQR 032050 AAA
TAFPDX
TAF AMD
KPDX 032050Z 0321/0418 30007KT P6SM SKC
     FM032200 32012KT P6SM SKC
     FM040500 33004KT P6SM SKC=



000
FTUS46 KPQR 031956 AAB
TAFONP
TAF AMD
KONP 031956Z 0320/0418 34015G22KT P6SM OVC004
     FM032100 34015G22KT 5SM HZ SKC
     FM040400 34008KT 5SM BR SKC
     FM040600 29005KT 4SM BR OVC005=



000
FTUS46 KPQR 031956 AAB
TAFONP
TAF AMD
KONP 031956Z 0320/0418 34015G22KT P6SM OVC004
     FM032100 34015G22KT 5SM HZ SKC
     FM040400 34008KT 5SM BR SKC
     FM040600 29005KT 4SM BR OVC005=



000
FTUS46 KPQR 031748 AAA
TAFONP
TAF AMD
KONP 031748Z 0318/0418 34014G20KT P6SM SCT008
     FM031900 34015G22KT 5SM HZ SKC
     FM040400 34008KT 5SM BR SKC
     FM040600 29005KT 4SM BR OVC005=



000
FTUS46 KPQR 031748 AAA
TAFONP
TAF AMD
KONP 031748Z 0318/0418 34014G20KT P6SM SCT008
     FM031900 34015G22KT 5SM HZ SKC
     FM040400 34008KT 5SM BR SKC
     FM040600 29005KT 4SM BR OVC005=



000
FTUS46 KPQR 031724
TAFHIO
TAF
KHIO 031724Z 0318/0418 VRB03KT P6SM SKC
     FM032100 32013KT P6SM SKC
     FM040400 30008KT P6SM SKC
     FM040700 VRB03KT P6SM SKC=



000
FTUS46 KPQR 031724
TAFHIO
TAF
KHIO 031724Z 0318/0418 VRB03KT P6SM SKC
     FM032100 32013KT P6SM SKC
     FM040400 30008KT P6SM SKC
     FM040700 VRB03KT P6SM SKC=



000
FTUS46 KPQR 031724
TAFONP
TAF
KONP 031724Z 0318/0418 34014G20KT P6SM BKN006
     FM031900 34015G22KT 5SM HZ SKC
     FM040400 34008KT 5SM BR SKC
     FM040600 29005KT 4SM BR OVC005=



000
FTUS46 KPQR 031724
TAFSLE
TAF
KSLE 031724Z 0318/0418 30005KT P6SM SKC
     FM032000 35011KT P6SM SKC
     FM040500 VRB03KT P6SM SKC=



000
FTUS46 KPQR 031724
TAFHIO
TAF
KHIO 031724Z 0318/0418 VRB03KT P6SM SKC
     FM032100 32013KT P6SM SKC
     FM040400 30008KT P6SM SKC
     FM040700 VRB03KT P6SM SKC=



000
FTUS46 KPQR 031724
TAFHIO
TAF
KHIO 031724Z 0318/0418 VRB03KT P6SM SKC
     FM032100 32013KT P6SM SKC
     FM040400 30008KT P6SM SKC
     FM040700 VRB03KT P6SM SKC=



000
FTUS46 KPQR 031724
TAFAST
TAF
KAST 031724Z 0318/0418 29007KT P6SM OVC012
     FM031900 31009KT P6SM SKC
     FM040500 29005KT P6SM OVC007=



000
FTUS46 KPQR 031724
TAFONP
TAF
KONP 031724Z 0318/0418 34014G20KT P6SM BKN006
     FM031900 34015G22KT 5SM HZ SKC
     FM040400 34008KT 5SM BR SKC
     FM040600 29005KT 4SM BR OVC005=



000
FTUS46 KPQR 031724
TAFONP
TAF
KONP 031724Z 0318/0418 34014G20KT P6SM BKN006
     FM031900 34015G22KT 5SM HZ SKC
     FM040400 34008KT 5SM BR SKC
     FM040600 29005KT 4SM BR OVC005=



000
FTUS46 KPQR 031724
TAFONP
TAF
KONP 031724Z 0318/0418 34014G20KT P6SM BKN006
     FM031900 34015G22KT 5SM HZ SKC
     FM040400 34008KT 5SM BR SKC
     FM040600 29005KT 4SM BR OVC005=



000
FTUS46 KPQR 031724
TAFTTD
TAF
KTTD 031724Z 0318/0418 00000KT P6SM SKC
     FM032100 26007KT P6SM SKC
     FM040600 VRB03KT P6SM SKC=



000
FTUS46 KPQR 031724
TAFPDX
TAF
KPDX 031724Z 0318/0418 30007KT P6SM SKC
     FM032200 32012KT P6SM SKC
     FM040500 33004KT P6SM SKC=



000
FTUS46 KPQR 031724
TAFPDX
TAF
KPDX 031724Z 0318/0418 30007KT P6SM SKC
     FM032200 32012KT P6SM SKC
     FM040500 33004KT P6SM SKC=



000
FTUS46 KPQR 031724
TAFTTD
TAF
KTTD 031724Z 0318/0418 00000KT P6SM SKC
     FM032100 26007KT P6SM SKC
     FM040600 VRB03KT P6SM SKC=



000
FTUS46 KPQR 031724
TAFEUG
TAF
KEUG 031724Z 0318/0418 VRB04KT P6SM SKC
     FM032000 36012KT P6SM SKC
     FM040400 33005KT P6SM SKC=



000
FTUS46 KPQR 031724
TAFSLE
TAF
KSLE 031724Z 0318/0418 30005KT P6SM SKC
     FM032000 35011KT P6SM SKC
     FM040500 VRB03KT P6SM SKC=



000
FTUS46 KPQR 031724
TAFEUG
TAF
KEUG 031724Z 0318/0418 VRB04KT P6SM SKC
     FM032000 36012KT P6SM SKC
     FM040400 33005KT P6SM SKC=



000
FTUS46 KPQR 031724
TAFPDX
TAF
KPDX 031724Z 0318/0418 30007KT P6SM SKC
     FM032200 32012KT P6SM SKC
     FM040500 33004KT P6SM SKC=



000
FTUS46 KPQR 031724
TAFTTD
TAF
KTTD 031724Z 0318/0418 00000KT P6SM SKC
     FM032100 26007KT P6SM SKC
     FM040600 VRB03KT P6SM SKC=



000
FTUS46 KPQR 031724
TAFAST
TAF
KAST 031724Z 0318/0418 29007KT P6SM OVC012
     FM031900 31009KT P6SM SKC
     FM040500 29005KT P6SM OVC007=



000
FTUS46 KPQR 031724
TAFPDX
TAF
KPDX 031724Z 0318/0418 30007KT P6SM SKC
     FM032200 32012KT P6SM SKC
     FM040500 33004KT P6SM SKC=



000
FTUS46 KPQR 031724
TAFEUG
TAF
KEUG 031724Z 0318/0418 VRB04KT P6SM SKC
     FM032000 36012KT P6SM SKC
     FM040400 33005KT P6SM SKC=



000
FTUS46 KPQR 031724
TAFEUG
TAF
KEUG 031724Z 0318/0418 VRB04KT P6SM SKC
     FM032000 36012KT P6SM SKC
     FM040400 33005KT P6SM SKC=



000
FTUS46 KPQR 031724
TAFSLE
TAF
KSLE 031724Z 0318/0418 30005KT P6SM SKC
     FM032000 35011KT P6SM SKC
     FM040500 VRB03KT P6SM SKC=



000
FTUS46 KPQR 031724
TAFSLE
TAF
KSLE 031724Z 0318/0418 30005KT P6SM SKC
     FM032000 35011KT P6SM SKC
     FM040500 VRB03KT P6SM SKC=



000
FTUS46 KPQR 031724
TAFAST
TAF
KAST 031724Z 0318/0418 29007KT P6SM OVC012
     FM031900 31009KT P6SM SKC
     FM040500 29005KT P6SM OVC007=



000
FTUS46 KPQR 031724
TAFTTD
TAF
KTTD 031724Z 0318/0418 00000KT P6SM SKC
     FM032100 26007KT P6SM SKC
     FM040600 VRB03KT P6SM SKC=



000
FTUS46 KPQR 031724
TAFAST
TAF
KAST 031724Z 0318/0418 29007KT P6SM OVC012
     FM031900 31009KT P6SM SKC
     FM040500 29005KT P6SM OVC007=



000
FTUS46 KPQR 031509 AAA
TAFPDX
TAF AMD
KPDX 031509Z 0315/0412 31005KT P6SM SKC
     FM032200 32012KT P6SM SKC
     FM040500 33006KT P6SM SKC=



000
FTUS46 KPQR 031509 AAA
TAFPDX
TAF AMD
KPDX 031509Z 0315/0412 31005KT P6SM SKC
     FM032200 32012KT P6SM SKC
     FM040500 33006KT P6SM SKC=



000
FTUS46 KPQR 031347 AAA
TAFONP
TAF AMD
KONP 031347Z 0314/0412 VRB03KT 5SM BR OVC006
     FM031900 34014G25KT 6SM HZ SKC
     FM040400 34008KT 5SM BR SKC
     FM040800 35006KT 4SM BR BKN003=



000
FTUS46 KPQR 031343 AAA
TAFAST
TAF AMD
KAST 031343Z 0314/0412 29004KT P6SM OVC007
     FM031900 31009KT P6SM SKC
     FM040500 29008KT P6SM BKN007=



000
FTUS46 KPQR 031343 AAA
TAFAST
TAF AMD
KAST 031343Z 0314/0412 29004KT P6SM OVC007
     FM031900 31009KT P6SM SKC
     FM040500 29008KT P6SM BKN007=



000
FTUS46 KPQR 031136
TAFONP
TAF
KONP 031136Z 0312/0412 34005KT 2SM BR OVC002
     FM031600 31010KT 5SM BR BKN005
     FM031900 34014G25KT 6SM BR SKC
     FM040400 34008KT 5SM BR SKC
     FM040800 35006KT 4SM BR BKN003=



000
FTUS46 KPQR 031136
TAFSLE
TAF
KSLE 031136Z 0312/0412 VRB04KT P6SM SKC
     FM032000 35011KT P6SM SKC
     FM040500 VRB03KT P6SM SKC=



000
FTUS46 KPQR 031136
TAFEUG
TAF
KEUG 031136Z 0312/0412 VRB04KT P6SM SKC
     FM032000 36012KT P6SM SKC
     FM040400 33005KT P6SM SKC=



000
FTUS46 KPQR 031136
TAFTTD
TAF
KTTD 031136Z 0312/0412 00000KT P6SM SKC
     FM032100 26007KT P6SM SKC=



000
FTUS46 KPQR 031136
TAFHIO
TAF
KHIO 031136Z 0312/0412 VRB03KT P6SM SKC
     FM032300 32011KT P6SM SKC
     FM040700 VRB03KT P6SM SKC=



000
FTUS46 KPQR 031136
TAFAST
TAF
KAST 031136Z 0312/0412 28005KT P6SM OVC007
      TEMPO 0312/0315 3SM BR
     FM031700 29005KT 6SM BR BKN007
     FM031900 29009KT P6SM SKC
     FM040500 29008KT P6SM BKN007=



000
FTUS46 KPQR 031136
TAFPDX
TAF
KPDX 031136Z 0312/0412 33005KT P6SM SKC
     FM032200 32012KT P6SM SKC
     FM040500 33006KT P6SM SKC=



000
FTUS46 KPQR 031136
TAFSLE
TAF
KSLE 031136Z 0312/0412 VRB04KT P6SM SKC
     FM032000 35011KT P6SM SKC
     FM040500 VRB03KT P6SM SKC=



000
FTUS46 KPQR 031136
TAFEUG
TAF
KEUG 031136Z 0312/0412 VRB04KT P6SM SKC
     FM032000 36012KT P6SM SKC
     FM040400 33005KT P6SM SKC=



000
FTUS46 KPQR 031136
TAFAST
TAF
KAST 031136Z 0312/0412 28005KT P6SM OVC007
      TEMPO 0312/0315 3SM BR
     FM031700 29005KT 6SM BR BKN007
     FM031900 29009KT P6SM SKC
     FM040500 29008KT P6SM BKN007=



000
FTUS46 KPQR 031136
TAFONP
TAF
KONP 031136Z 0312/0412 34005KT 2SM BR OVC002
     FM031600 31010KT 5SM BR BKN005
     FM031900 34014G25KT 6SM BR SKC
     FM040400 34008KT 5SM BR SKC
     FM040800 35006KT 4SM BR BKN003=



000
FTUS46 KPQR 031136
TAFHIO
TAF
KHIO 031136Z 0312/0412 VRB03KT P6SM SKC
     FM032300 32011KT P6SM SKC
     FM040700 VRB03KT P6SM SKC=



000
FTUS46 KPQR 031136
TAFPDX
TAF
KPDX 031136Z 0312/0412 33005KT P6SM SKC
     FM032200 32012KT P6SM SKC
     FM040500 33006KT P6SM SKC=



000
FTUS46 KPQR 031136
TAFTTD
TAF
KTTD 031136Z 0312/0412 00000KT P6SM SKC
     FM032100 26007KT P6SM SKC=



000
FTUS46 KPQR 031136
TAFAST
TAF
KAST 031136Z 0312/0412 28005KT P6SM OVC007
      TEMPO 0312/0315 3SM BR
     FM031700 29005KT 6SM BR BKN007
     FM031900 29009KT P6SM SKC
     FM040500 29008KT P6SM BKN007=



000
FTUS46 KPQR 031136
TAFPDX
TAF
KPDX 031136Z 0312/0412 33005KT P6SM SKC
     FM032200 32012KT P6SM SKC
     FM040500 33006KT P6SM SKC=



000
FTUS46 KPQR 031136
TAFPDX
TAF
KPDX 031136Z 0312/0412 33005KT P6SM SKC
     FM032200 32012KT P6SM SKC
     FM040500 33006KT P6SM SKC=



000
FTUS46 KPQR 031136
TAFEUG
TAF
KEUG 031136Z 0312/0412 VRB04KT P6SM SKC
     FM032000 36012KT P6SM SKC
     FM040400 33005KT P6SM SKC=



000
FTUS46 KPQR 031136
TAFSLE
TAF
KSLE 031136Z 0312/0412 VRB04KT P6SM SKC
     FM032000 35011KT P6SM SKC
     FM040500 VRB03KT P6SM SKC=



000
FTUS46 KPQR 031136
TAFEUG
TAF
KEUG 031136Z 0312/0412 VRB04KT P6SM SKC
     FM032000 36012KT P6SM SKC
     FM040400 33005KT P6SM SKC=



000
FTUS46 KPQR 031136
TAFTTD
TAF
KTTD 031136Z 0312/0412 00000KT P6SM SKC
     FM032100 26007KT P6SM SKC=



000
FTUS46 KPQR 031136
TAFONP
TAF
KONP 031136Z 0312/0412 34005KT 2SM BR OVC002
     FM031600 31010KT 5SM BR BKN005
     FM031900 34014G25KT 6SM BR SKC
     FM040400 34008KT 5SM BR SKC
     FM040800 35006KT 4SM BR BKN003=



000
FTUS46 KPQR 031136
TAFAST
TAF
KAST 031136Z 0312/0412 28005KT P6SM OVC007
      TEMPO 0312/0315 3SM BR
     FM031700 29005KT 6SM BR BKN007
     FM031900 29009KT P6SM SKC
     FM040500 29008KT P6SM BKN007=



000
FTUS46 KPQR 031136
TAFHIO
TAF
KHIO 031136Z 0312/0412 VRB03KT P6SM SKC
     FM032300 32011KT P6SM SKC
     FM040700 VRB03KT P6SM SKC=



000
FTUS46 KPQR 031136
TAFONP
TAF
KONP 031136Z 0312/0412 34005KT 2SM BR OVC002
     FM031600 31010KT 5SM BR BKN005
     FM031900 34014G25KT 6SM BR SKC
     FM040400 34008KT 5SM BR SKC
     FM040800 35006KT 4SM BR BKN003=



000
FTUS46 KPQR 031136
TAFTTD
TAF
KTTD 031136Z 0312/0412 00000KT P6SM SKC
     FM032100 26007KT P6SM SKC=



000
FTUS46 KPQR 031136
TAFSLE
TAF
KSLE 031136Z 0312/0412 VRB04KT P6SM SKC
     FM032000 35011KT P6SM SKC
     FM040500 VRB03KT P6SM SKC=



000
FTUS46 KPQR 031136
TAFHIO
TAF
KHIO 031136Z 0312/0412 VRB03KT P6SM SKC
     FM032300 32011KT P6SM SKC
     FM040700 VRB03KT P6SM SKC=



000
FTUS46 KPQR 030933 AAA
TAFPDX
TAF AMD
KPDX 030933Z 0310/0406 33005KT P6SM SKC
     FM032200 32012KT P6SM SKC=



000
FTUS46 KPQR 030531
TAFAST
TAF
KAST 030531Z 0306/0406 29007KT 6SM BR SCT008
     FM030800 28005KT 4SM BR BKN008
     FM031200 30008KT 3SM BR OVC003
     FM031700 29010KT 6SM BR BKN007=



000
FTUS46 KPQR 030531
TAFONP
TAF
KONP 030531Z 0306/0406 34010KT 4SM BR SCT004
     FM030800 34005KT 1SM BR BKN004
     FM031600 31010KT 3SM BR OVC007
     FM031900 32012G18KT 6SM BR SCT007=



000
FTUS46 KPQR 030531
TAFSLE
TAF
KSLE 030531Z 0306/0406 VRB04KT P6SM SKC
     FM032000 35011KT P6SM SKC=



000
FTUS46 KPQR 030531
TAFEUG
TAF
KEUG 030531Z 0306/0406 VRB04KT P6SM SKC
     FM032000 36012KT P6SM SKC=



000
FTUS46 KPQR 030531
TAFHIO
TAF
KHIO 030531Z 0306/0406 32008KT P6SM SKC
     FM030900 VRB03KT P6SM SKC
     FM032100 32012KT P6SM SKC=



000
FTUS46 KPQR 030531
TAFPDX
TAF
KPDX 030531Z 0306/0406 30005KT P6SM SKC
     FM031000 VRB03KT P6SM SKC
     FM032200 32012KT P6SM SKC=



000
FTUS46 KPQR 030531
TAFTTD
TAF
KTTD 030531Z 0306/0406 VRB04KT P6SM SKC
     FM032100 26007KT P6SM SKC=



000
FTUS46 KPQR 030531
TAFTTD
TAF
KTTD 030531Z 0306/0406 VRB04KT P6SM SKC
     FM032100 26007KT P6SM SKC=



000
FTUS46 KPQR 030531
TAFONP
TAF
KONP 030531Z 0306/0406 34010KT 4SM BR SCT004
     FM030800 34005KT 1SM BR BKN004
     FM031600 31010KT 3SM BR OVC007
     FM031900 32012G18KT 6SM BR SCT007=



000
FTUS46 KPQR 030531
TAFPDX
TAF
KPDX 030531Z 0306/0406 30005KT P6SM SKC
     FM031000 VRB03KT P6SM SKC
     FM032200 32012KT P6SM SKC=



000
FTUS46 KPQR 030531
TAFHIO
TAF
KHIO 030531Z 0306/0406 32008KT P6SM SKC
     FM030900 VRB03KT P6SM SKC
     FM032100 32012KT P6SM SKC=



000
FTUS46 KPQR 030531
TAFAST
TAF
KAST 030531Z 0306/0406 29007KT 6SM BR SCT008
     FM030800 28005KT 4SM BR BKN008
     FM031200 30008KT 3SM BR OVC003
     FM031700 29010KT 6SM BR BKN007=



000
FTUS46 KPQR 030531
TAFEUG
TAF
KEUG 030531Z 0306/0406 VRB04KT P6SM SKC
     FM032000 36012KT P6SM SKC=



000
FTUS46 KPQR 030531
TAFSLE
TAF
KSLE 030531Z 0306/0406 VRB04KT P6SM SKC
     FM032000 35011KT P6SM SKC=



000
FTUS46 KPQR 030246 AAA
TAFONP
TAF AMD
KONP 030246Z 0303/0324 34013KT 4SM BR SCT004
     FM030400 34005KT 1SM BR BKN004
     FM031600 31010KT 3SM BR OVC007
     FM031900 32012G18KT 6SM BR SCT007=



000
FTUS46 KPQR 030246 AAA
TAFONP
TAF AMD
KONP 030246Z 0303/0324 34013KT 4SM BR SCT004
     FM030400 34005KT 1SM BR BKN004
     FM031600 31010KT 3SM BR OVC007
     FM031900 32012G18KT 6SM BR SCT007=



000
FTUS46 KPQR 030246 AAA
TAFONP
TAF AMD
KONP 030246Z 0303/0324 34013KT 4SM BR SCT004
     FM030400 34005KT 1SM BR BKN004
     FM031600 31010KT 3SM BR OVC007
     FM031900 32012G18KT 6SM BR SCT007=



000
FTUS46 KPQR 030245 AAA
TAFPDX
TAF AMD
KPDX 030245Z 0303/0324 31009KT P6SM SKC
     FM030600 30005KT P6SM SKC
     FM031000 VRB03KT P6SM SKC
     FM032200 32012KT P6SM SKC=



000
FTUS46 KPQR 030245 AAA
TAFPDX
TAF AMD
KPDX 030245Z 0303/0324 31009KT P6SM SKC
     FM030600 30005KT P6SM SKC
     FM031000 VRB03KT P6SM SKC
     FM032200 32012KT P6SM SKC=



000
FTUS46 KPQR 030245 AAA
TAFPDX
TAF AMD
KPDX 030245Z 0303/0324 31009KT P6SM SKC
     FM030600 30005KT P6SM SKC
     FM031000 VRB03KT P6SM SKC
     FM032200 32012KT P6SM SKC=



000
FTUS46 KPQR 030245 AAA
TAFPDX
TAF AMD
KPDX 030245Z 0303/0324 31009KT P6SM SKC
     FM030600 30005KT P6SM SKC
     FM031000 VRB03KT P6SM SKC
     FM032200 32012KT P6SM SKC=



000
FTUS46 KPQR 022320
TAFTTD
TAF
KTTD 022320Z 0300/0324 28008KT P6SM SKC
     FM030400 VRB03KT P6SM SKC=



000
FTUS46 KPQR 022320
TAFAST
TAF
KAST 022320Z 0300/0324 30012G21KT P6SM FEW012
     FM030500 29007KT 6SM BR BKN008
     FM031200 30008KT 3SM BR OVC003=



000
FTUS46 KPQR 022320
TAFAST
TAF
KAST 022320Z 0300/0324 30012G21KT P6SM FEW012
     FM030500 29007KT 6SM BR BKN008
     FM031200 30008KT 3SM BR OVC003=



000
FTUS46 KPQR 022320
TAFPDX
TAF
KPDX 022320Z 0300/0324 28010KT P6SM SKC
     FM030400 30005KT P6SM SKC
     FM031000 VRB03KT P6SM SKC=



000
FTUS46 KPQR 022320
TAFEUG
TAF
KEUG 022320Z 0300/0324 36012G18KT P6SM SKC
     FM030400 VRB03KT P6SM SKC=



000
FTUS46 KPQR 022320
TAFHIO
TAF
KHIO 022320Z 0300/0324 32013KT P6SM SKC
     FM030400 32008KT P6SM SKC
     FM030900 VRB03KT P6SM SKC=



000
FTUS46 KPQR 022320
TAFONP
TAF
KONP 022320Z 0300/0324 34015G22KT P6SM FEW004
     FM030200 33011KT 4SM BR OVC004
     FM030400 34005KT 1SM BR OVC002
     FM031600 31010KT 3SM BR OVC007=



000
FTUS46 KPQR 022320
TAFONP
TAF
KONP 022320Z 0300/0324 34015G22KT P6SM FEW004
     FM030200 33011KT 4SM BR OVC004
     FM030400 34005KT 1SM BR OVC002
     FM031600 31010KT 3SM BR OVC007=



000
FTUS46 KPQR 022320
TAFEUG
TAF
KEUG 022320Z 0300/0324 36012G18KT P6SM SKC
     FM030400 VRB03KT P6SM SKC=



000
FTUS46 KPQR 022320
TAFHIO
TAF
KHIO 022320Z 0300/0324 32013KT P6SM SKC
     FM030400 32008KT P6SM SKC
     FM030900 VRB03KT P6SM SKC=



000
FTUS46 KPQR 022320
TAFSLE
TAF
KSLE 022320Z 0300/0324 36011KT P6SM SKC
     FM030400 VRB03KT P6SM SKC=



000
FTUS46 KPQR 022320
TAFSLE
TAF
KSLE 022320Z 0300/0324 36011KT P6SM SKC
     FM030400 VRB03KT P6SM SKC=



000
FTUS46 KPQR 022320
TAFPDX
TAF
KPDX 022320Z 0300/0324 28010KT P6SM SKC
     FM030400 30005KT P6SM SKC
     FM031000 VRB03KT P6SM SKC=



000
FTUS46 KPQR 022320
TAFTTD
TAF
KTTD 022320Z 0300/0324 28008KT P6SM SKC
     FM030400 VRB03KT P6SM SKC=



000
FTUS46 KPQR 022051 AAA
TAFPDX
TAF AMD
KPDX 022051Z 0221/0318 28010KT P6SM SKC
     FM030400 30005KT P6SM SKC
     FM031000 VRB03KT P6SM SKC=



000
FTUS46 KPQR 022051 AAA
TAFPDX
TAF AMD
KPDX 022051Z 0221/0318 28010KT P6SM SKC
     FM030400 30005KT P6SM SKC
     FM031000 VRB03KT P6SM SKC=



000
FTUS46 KPQR 022030 AAB
TAFONP
TAF AMD
KONP 022030Z 0221/0318 34015G22KT P6SM FEW004
     FM030200 33011KT 4SM BR OVC004
     FM030400 34005KT 1SM BR OVC002
     FM031600 31010KT 3SM BR OVC007=



000
FTUS46 KPQR 021904 AAA
TAFONP
TAF AMD
KONP 021904Z 0219/0318 34015G22KT 2SM BR BKN002
     FM022200 35015G22KT P6SM FEW004
     FM030200 33011KT 4SM BR OVC004
     FM030400 34005KT 1SM BR OVC002
     FM031600 31010KT 3SM BR OVC007=



000
FTUS46 KPQR 021904 AAA
TAFONP
TAF AMD
KONP 021904Z 0219/0318 34015G22KT 2SM BR BKN002
     FM022200 35015G22KT P6SM FEW004
     FM030200 33011KT 4SM BR OVC004
     FM030400 34005KT 1SM BR OVC002
     FM031600 31010KT 3SM BR OVC007=



000
FTUS46 KPQR 021725
TAFONP
TAF
KONP 021725Z 0218/0318 30005KT 6SM BR BKN004
     FM022100 33015G22KT P6SM FEW004
     FM030200 33011KT 4SM BR OVC004
     FM030400 34005KT 1SM BR OVC002
     FM031600 31010KT 3SM BR OVC007=



000
FTUS46 KPQR 021725
TAFAST
TAF
KAST 021725Z 0218/0318 VRB03KT P6SM SCT008
     FM022100 30012G21KT P6SM FEW012
     FM030500 29007KT 6SM BR BKN008
     FM031200 30008KT 3SM BR OVC003=



000
FTUS46 KPQR 021725
TAFTTD
TAF
KTTD 021725Z 0218/0318 VRB03KT P6SM SKC
     FM022000 28008KT P6SM SKC
     FM030400 VRB03KT P6SM SKC=



000
FTUS46 KPQR 021725
TAFSLE
TAF
KSLE 021725Z 0218/0318 VRB03KT P6SM SKC
     FM022100 36011KT P6SM SKC
     FM030400 VRB03KT P6SM SKC=



000
FTUS46 KPQR 021725
TAFEUG
TAF
KEUG 021725Z 0218/0318 VRB04KT P6SM SKC
     FM022100 36012G18KT P6SM SKC
     FM030400 VRB03KT P6SM SKC=



000
FTUS46 KPQR 021725
TAFONP
TAF
KONP 021725Z 0218/0318 30005KT 6SM BR BKN004
     FM022100 33015G22KT P6SM FEW004
     FM030200 33011KT 4SM BR OVC004
     FM030400 34005KT 1SM BR OVC002
     FM031600 31010KT 3SM BR OVC007=



000
FTUS46 KPQR 021725
TAFPDX
TAF
KPDX 021725Z 0218/0318 28010KT P6SM SKC
     FM030400 30005KT P6SM SKC
     FM031000 VRB03KT P6SM SKC=



000
FTUS46 KPQR 021725
TAFHIO
TAF
KHIO 021725Z 0218/0318 VRB03KT P6SM SKC
     FM022100 01006KT P6SM SKC
     FM030000 32010KT P6SM SKC
     FM030500 VRB03KT P6SM SKC=



000
FTUS46 KPQR 021725
TAFTTD
TAF
KTTD 021725Z 0218/0318 VRB03KT P6SM SKC
     FM022000 28008KT P6SM SKC
     FM030400 VRB03KT P6SM SKC=



000
FTUS46 KPQR 021725
TAFHIO
TAF
KHIO 021725Z 0218/0318 VRB03KT P6SM SKC
     FM022100 01006KT P6SM SKC
     FM030000 32010KT P6SM SKC
     FM030500 VRB03KT P6SM SKC=



000
FTUS46 KPQR 021725
TAFAST
TAF
KAST 021725Z 0218/0318 VRB03KT P6SM SCT008
     FM022100 30012G21KT P6SM FEW012
     FM030500 29007KT 6SM BR BKN008
     FM031200 30008KT 3SM BR OVC003=



000
FTUS46 KPQR 021725
TAFPDX
TAF
KPDX 021725Z 0218/0318 28010KT P6SM SKC
     FM030400 30005KT P6SM SKC
     FM031000 VRB03KT P6SM SKC=



000
FTUS46 KPQR 021725
TAFSLE
TAF
KSLE 021725Z 0218/0318 VRB03KT P6SM SKC
     FM022100 36011KT P6SM SKC
     FM030400 VRB03KT P6SM SKC=



000
FTUS46 KPQR 021725
TAFEUG
TAF
KEUG 021725Z 0218/0318 VRB04KT P6SM SKC
     FM022100 36012G18KT P6SM SKC
     FM030400 VRB03KT P6SM SKC=



000
FTUS46 KPQR 021546 AAA
TAFAST
TAF AMD
KAST 021546Z 0216/0312 22004KT 4SM BR OVC004
     FM021700 30010G18KT P6SM FEW012
     FM030500 29007KT P6SM BKN008=



000
FTUS46 KPQR 021546 AAA
TAFAST
TAF AMD
KAST 021546Z 0216/0312 22004KT 4SM BR OVC004
     FM021700 30010G18KT P6SM FEW012
     FM030500 29007KT P6SM BKN008=



000
FTUS46 KPQR 021546 AAA
TAFAST
TAF AMD
KAST 021546Z 0216/0312 22004KT 4SM BR OVC004
     FM021700 30010G18KT P6SM FEW012
     FM030500 29007KT P6SM BKN008=



000
FTUS46 KPQR 021456 AAA
TAFPDX
TAF AMD
KPDX 021456Z 0215/0312 30004KT P6SM SKC
     FM021900 30011KT P6SM SKC
     FM030400 30005KT P6SM SKC=



000
FTUS46 KPQR 021456 AAA
TAFPDX
TAF AMD
KPDX 021456Z 0215/0312 30004KT P6SM SKC
     FM021900 30011KT P6SM SKC
     FM030400 30005KT P6SM SKC=



000
FTUS46 KPQR 021137
TAFAST
TAF
KAST 021137Z 0212/0312 22004KT P6SM OVC006
     FM021800 30010G18KT P6SM FEW012
     FM030500 29007KT P6SM BKN008=



000
FTUS46 KPQR 021137
TAFPDX
TAF
KPDX 021137Z 0212/0312 30004KT P6SM SKC
     FM021900 30011KT P6SM SKC
     FM030400 30005KT P6SM SKC=



000
FTUS46 KPQR 021137
TAFSLE
TAF
KSLE 021137Z 0212/0312 VRB03KT P6SM SKC
     FM022100 36011KT P6SM SKC
     FM030400 01005KT P6SM SKC=



000
FTUS46 KPQR 021137
TAFHIO
TAF
KHIO 021137Z 0212/0312 VRB04KT P6SM SKC
     FM022100 01006KT P6SM SKC
     FM030000 32010KT P6SM SKC
     FM030600 30004KT P6SM SKC=



000
FTUS46 KPQR 021137
TAFHIO
TAF
KHIO 021137Z 0212/0312 VRB04KT P6SM SKC
     FM022100 01006KT P6SM SKC
     FM030000 32010KT P6SM SKC
     FM030600 30004KT P6SM SKC=



000
FTUS46 KPQR 021137
TAFSLE
TAF
KSLE 021137Z 0212/0312 VRB03KT P6SM SKC
     FM022100 36011KT P6SM SKC
     FM030400 01005KT P6SM SKC=



000
FTUS46 KPQR 021137
TAFPDX
TAF
KPDX 021137Z 0212/0312 30004KT P6SM SKC
     FM021900 30011KT P6SM SKC
     FM030400 30005KT P6SM SKC=



000
FTUS46 KPQR 021137
TAFAST
TAF
KAST 021137Z 0212/0312 22004KT P6SM OVC006
     FM021800 30010G18KT P6SM FEW012
     FM030500 29007KT P6SM BKN008=



000
FTUS46 KPQR 021137
TAFONP
TAF
KONP 021137Z 0212/0312 33005KT 3SM BR OVC003
     FM021700 34012G22KT 5SM BR BKN006
     FM022100 33015G25KT P6SM FEW004
     FM030100 33011KT 4SM BR OVC004
     FM030400 34005KT 2SM BR OVC002=



000
FTUS46 KPQR 021137
TAFEUG
TAF
KEUG 021137Z 0212/0312 VRB03KT P6SM SKC
     FM021900 36012G18KT P6SM SKC
     FM030400 02006KT P6SM SKC=



000
FTUS46 KPQR 021137
TAFTTD
TAF
KTTD 021137Z 0212/0312 VRB03KT P6SM SKC
     FM022000 28008KT P6SM SKC
     FM030400 VRB03KT P6SM SKC=



000
FTUS46 KPQR 021137
TAFEUG
TAF
KEUG 021137Z 0212/0312 VRB03KT P6SM SKC
     FM021900 36012G18KT P6SM SKC
     FM030400 02006KT P6SM SKC=



000
FTUS46 KPQR 021137
TAFONP
TAF
KONP 021137Z 0212/0312 33005KT 3SM BR OVC003
     FM021700 34012G22KT 5SM BR BKN006
     FM022100 33015G25KT P6SM FEW004
     FM030100 33011KT 4SM BR OVC004
     FM030400 34005KT 2SM BR OVC002=



000
FTUS46 KPQR 021137
TAFTTD
TAF
KTTD 021137Z 0212/0312 VRB03KT P6SM SKC
     FM022000 28008KT P6SM SKC
     FM030400 VRB03KT P6SM SKC=



000
FTUS46 KPQR 021043 AAA
TAFAST
TAF AMD
KAST 021043Z 0211/0306 22004KT P6SM OVC006
     FM021800 32010G18KT P6SM SKC=



000
FTUS46 KPQR 021043 AAA
TAFAST
TAF AMD
KAST 021043Z 0211/0306 22004KT P6SM OVC006
     FM021800 32010G18KT P6SM SKC=



000
FTUS46 KPQR 021043 AAA
TAFAST
TAF AMD
KAST 021043Z 0211/0306 22004KT P6SM OVC006
     FM021800 32010G18KT P6SM SKC=



000
FTUS46 KPQR 021043 AAA
TAFAST
TAF AMD
KAST 021043Z 0211/0306 22004KT P6SM OVC006
     FM021800 32010G18KT P6SM SKC=



000
FTUS46 KPQR 020906 AAA
TAFPDX
TAF AMD
KPDX 020906Z 0209/0306 30004KT P6SM SKC
     FM021900 30011KT P6SM SKC=



000
FTUS46 KPQR 020906 AAA
TAFPDX
TAF AMD
KPDX 020906Z 0209/0306 30004KT P6SM SKC
     FM021900 30011KT P6SM SKC=



000
FTUS46 KPQR 020812 AAA
TAFONP
TAF AMD
KONP 020812Z 0208/0306 33005KT 2SM BR OVC002
     FM021700 34012G22KT 6SM BR BKN004
     FM022100 34015G25KT P6SM FEW004=



000
FTUS46 KPQR 020812 AAA
TAFONP
TAF AMD
KONP 020812Z 0208/0306 33005KT 2SM BR OVC002
     FM021700 34012G22KT 6SM BR BKN004
     FM022100 34015G25KT P6SM FEW004=



000
FTUS46 KPQR 020539
TAFHIO
TAF
KHIO 020539Z 0206/0306 34007KT P6SM SKC
     FM020800 VRB04KT P6SM SKC
     FM022100 01009KT P6SM SKC=



000
FTUS46 KPQR 020539
TAFPDX
TAF
KPDX 020539Z 0206/0306 32007KT P6SM SKC
     FM021900 32011KT P6SM SKC=



000
FTUS46 KPQR 020539
TAFEUG
TAF
KEUG 020539Z 0206/0306 36007KT P6SM SKC
     FM021900 01012G18KT P6SM SKC=



000
FTUS46 KPQR 020539
TAFSLE
TAF
KSLE 020539Z 0206/0306 34006KT P6SM SKC
     FM022100 36011KT P6SM SKC=



000
FTUS46 KPQR 020539
TAFONP
TAF
KONP 020539Z 0206/0306 01005KT 5SM BR SCT002
     FM021200 VRB05KT 3SM BR BKN004
     FM021700 34012G22KT 6SM BR BKN004
     FM022100 34015G25KT P6SM FEW004=



000
FTUS46 KPQR 020539
TAFAST
TAF
KAST 020539Z 0206/0306 VRB03KT P6SM SKC
     FM021800 32010G18KT P6SM SKC=



000
FTUS46 KPQR 020539
TAFTTD
TAF
KTTD 020539Z 0206/0306 VRB04KT P6SM SKC
     FM022000 28008KT P6SM SKC=



000
FTUS46 KPQR 020539
TAFHIO
TAF
KHIO 020539Z 0206/0306 34007KT P6SM SKC
     FM020800 VRB04KT P6SM SKC
     FM022100 01009KT P6SM SKC=



000
FTUS46 KPQR 020539
TAFTTD
TAF
KTTD 020539Z 0206/0306 VRB04KT P6SM SKC
     FM022000 28008KT P6SM SKC=



000
FTUS46 KPQR 020539
TAFPDX
TAF
KPDX 020539Z 0206/0306 32007KT P6SM SKC
     FM021900 32011KT P6SM SKC=



000
FTUS46 KPQR 020539
TAFAST
TAF
KAST 020539Z 0206/0306 VRB03KT P6SM SKC
     FM021800 32010G18KT P6SM SKC=



000
FTUS46 KPQR 020539
TAFEUG
TAF
KEUG 020539Z 0206/0306 36007KT P6SM SKC
     FM021900 01012G18KT P6SM SKC=



000
FTUS46 KPQR 020539
TAFONP
TAF
KONP 020539Z 0206/0306 01005KT 5SM BR SCT002
     FM021200 VRB05KT 3SM BR BKN004
     FM021700 34012G22KT 6SM BR BKN004
     FM022100 34015G25KT P6SM FEW004=



000
FTUS46 KPQR 020539
TAFSLE
TAF
KSLE 020539Z 0206/0306 34006KT P6SM SKC
     FM022100 36011KT P6SM SKC=



000
FTUS46 KPQR 020308 AAA
TAFPDX
TAF AMD
KPDX 020308Z 0203/0224 32013KT P6SM SKC
     FM020600 32007KT P6SM SKC
     FM021900 32010KT P6SM SKC=



000
FTUS46 KPQR 020308 AAA
TAFPDX
TAF AMD
KPDX 020308Z 0203/0224 32013KT P6SM SKC
     FM020600 32007KT P6SM SKC
     FM021900 32010KT P6SM SKC=



000
FTUS46 KPQR 020308 AAA
TAFPDX
TAF AMD
KPDX 020308Z 0203/0224 32013KT P6SM SKC
     FM020600 32007KT P6SM SKC
     FM021900 32010KT P6SM SKC=



000
FTUS46 KPQR 020308 AAA
TAFPDX
TAF AMD
KPDX 020308Z 0203/0224 32013KT P6SM SKC
     FM020600 32007KT P6SM SKC
     FM021900 32010KT P6SM SKC=



000
FTUS46 KPQR 020148 AAA
TAFONP
TAF AMD
KONP 020148Z 0202/0224 34012KT 5SM BR OVC003
     FM020500 35006KT 3SM BR OVC003
     FM021400 32011KT 5SM BR BKN003=



000
FTUS46 KPQR 020148 AAA
TAFONP
TAF AMD
KONP 020148Z 0202/0224 34012KT 5SM BR OVC003
     FM020500 35006KT 3SM BR OVC003
     FM021400 32011KT 5SM BR BKN003=



000
FTUS46 KPQR 012320
TAFHIO
TAF
KHIO 012320Z 0200/0224 04013KT P6SM SKC
     FM020600 VRB04KT P6SM SKC
     FM022100 01009KT P6SM SKC=



000
FTUS46 KPQR 012320
TAFSLE
TAF
KSLE 012320Z 0200/0224 01012G19KT P6SM SKC
     FM020400 34006KT P6SM SKC
     FM022100 36011KT P6SM SKC=



000
FTUS46 KPQR 012320
TAFAST
TAF
KAST 012320Z 0200/0224 32014KT P6SM SKC
     FM020500 30009KT P6SM SCT008
     FM020700 29005KT 6SM BR OVC008
     FM021600 30010KT P6SM FEW010=



000
FTUS46 KPQR 012320
TAFAST
TAF
KAST 012320Z 0200/0224 32014KT P6SM SKC
     FM020500 30009KT P6SM SCT008
     FM020700 29005KT 6SM BR OVC008
     FM021600 30010KT P6SM FEW010=



000
FTUS46 KPQR 012320
TAFHIO
TAF
KHIO 012320Z 0200/0224 04013KT P6SM SKC
     FM020600 VRB04KT P6SM SKC
     FM022100 01009KT P6SM SKC=



000
FTUS46 KPQR 012320
TAFPDX
TAF
KPDX 012320Z 0200/0224 32013KT P6SM SKC
     FM020600 32007KT P6SM SKC
     FM021900 32010KT P6SM SKC=



000
FTUS46 KPQR 012320
TAFHIO
TAF
KHIO 012320Z 0200/0224 04013KT P6SM SKC
     FM020600 VRB04KT P6SM SKC
     FM022100 01009KT P6SM SKC=



000
FTUS46 KPQR 012320
TAFSLE
TAF
KSLE 012320Z 0200/0224 01012G19KT P6SM SKC
     FM020400 34006KT P6SM SKC
     FM022100 36011KT P6SM SKC=



000
FTUS46 KPQR 012320
TAFPDX
TAF
KPDX 012320Z 0200/0224 32013KT P6SM SKC
     FM020600 32007KT P6SM SKC
     FM021900 32010KT P6SM SKC=



000
FTUS46 KPQR 012320
TAFTTD
TAF
KTTD 012320Z 0200/0224 28006KT P6SM SKC
     FM020600 VRB03KT P6SM SKC
     FM022000 28008KT P6SM SKC=



000
FTUS46 KPQR 012320
TAFONP
TAF
KONP 012320Z 0200/0224 36012G22KT P6SM SKC
     FM020300 34012KT 3SM BR BKN003
     FM020500 35006KT 3SM BR OVC003
     FM021400 32011KT 5SM BR BKN003=



000
FTUS46 KPQR 012320
TAFAST
TAF
KAST 012320Z 0200/0224 32014KT P6SM SKC
     FM020500 30009KT P6SM SCT008
     FM020700 29005KT 6SM BR OVC008
     FM021600 30010KT P6SM FEW010=



000
FTUS46 KPQR 012320
TAFTTD
TAF
KTTD 012320Z 0200/0224 28006KT P6SM SKC
     FM020600 VRB03KT P6SM SKC
     FM022000 28008KT P6SM SKC=



000
FTUS46 KPQR 012320
TAFONP
TAF
KONP 012320Z 0200/0224 36012G22KT P6SM SKC
     FM020300 34012KT 3SM BR BKN003
     FM020500 35006KT 3SM BR OVC003
     FM021400 32011KT 5SM BR BKN003=



000
FTUS46 KPQR 012320
TAFEUG
TAF
KEUG 012320Z 0200/0224 01013G20KT P6SM SKC
     FM020400 36007KT P6SM SKC
     FM021900 01012G18KT P6SM SKC=



000
FTUS46 KPQR 012320
TAFTTD
TAF
KTTD 012320Z 0200/0224 28006KT P6SM SKC
     FM020600 VRB03KT P6SM SKC
     FM022000 28008KT P6SM SKC=



000
FTUS46 KPQR 012320
TAFPDX
TAF
KPDX 012320Z 0200/0224 32013KT P6SM SKC
     FM020600 32007KT P6SM SKC
     FM021900 32010KT P6SM SKC=



000
FTUS46 KPQR 012320
TAFONP
TAF
KONP 012320Z 0200/0224 36012G22KT P6SM SKC
     FM020300 34012KT 3SM BR BKN003
     FM020500 35006KT 3SM BR OVC003
     FM021400 32011KT 5SM BR BKN003=



000
FTUS46 KPQR 012320
TAFHIO
TAF
KHIO 012320Z 0200/0224 04013KT P6SM SKC
     FM020600 VRB04KT P6SM SKC
     FM022100 01009KT P6SM SKC=



000
FTUS46 KPQR 012320
TAFAST
TAF
KAST 012320Z 0200/0224 32014KT P6SM SKC
     FM020500 30009KT P6SM SCT008
     FM020700 29005KT 6SM BR OVC008
     FM021600 30010KT P6SM FEW010=



000
FTUS46 KPQR 012320
TAFSLE
TAF
KSLE 012320Z 0200/0224 01012G19KT P6SM SKC
     FM020400 34006KT P6SM SKC
     FM022100 36011KT P6SM SKC=



000
FTUS46 KPQR 012320
TAFEUG
TAF
KEUG 012320Z 0200/0224 01013G20KT P6SM SKC
     FM020400 36007KT P6SM SKC
     FM021900 01012G18KT P6SM SKC=



000
FTUS46 KPQR 012320
TAFTTD
TAF
KTTD 012320Z 0200/0224 28006KT P6SM SKC
     FM020600 VRB03KT P6SM SKC
     FM022000 28008KT P6SM SKC=



000
FTUS46 KPQR 012320
TAFPDX
TAF
KPDX 012320Z 0200/0224 32013KT P6SM SKC
     FM020600 32007KT P6SM SKC
     FM021900 32010KT P6SM SKC=



000
FTUS46 KPQR 012320
TAFONP
TAF
KONP 012320Z 0200/0224 36012G22KT P6SM SKC
     FM020300 34012KT 3SM BR BKN003
     FM020500 35006KT 3SM BR OVC003
     FM021400 32011KT 5SM BR BKN003=



000
FTUS46 KPQR 012320
TAFSLE
TAF
KSLE 012320Z 0200/0224 01012G19KT P6SM SKC
     FM020400 34006KT P6SM SKC
     FM022100 36011KT P6SM SKC=



000
FTUS46 KPQR 012320
TAFEUG
TAF
KEUG 012320Z 0200/0224 01013G20KT P6SM SKC
     FM020400 36007KT P6SM SKC
     FM021900 01012G18KT P6SM SKC=



000
FTUS46 KPQR 012320
TAFEUG
TAF
KEUG 012320Z 0200/0224 01013G20KT P6SM SKC
     FM020400 36007KT P6SM SKC
     FM021900 01012G18KT P6SM SKC=



000
FTUS46 KPQR 012058 AAB
TAFONP
TAF AMD
KONP 012058Z 0121/0218 36015G26KT 5SM BR BKN003
      TEMPO 0121/0201 2SM BR OVC003
     FM020300 34014G23KT 3SM BR OVC003
     FM020500 35011KT 3SM BR OVC003=



000
FTUS46 KPQR 012058 AAB
TAFONP
TAF AMD
KONP 012058Z 0121/0218 36015G26KT 5SM BR BKN003
      TEMPO 0121/0201 2SM BR OVC003
     FM020300 34014G23KT 3SM BR OVC003
     FM020500 35011KT 3SM BR OVC003=



000
FTUS46 KPQR 012058 AAB
TAFONP
TAF AMD
KONP 012058Z 0121/0218 36015G26KT 5SM BR BKN003
      TEMPO 0121/0201 2SM BR OVC003
     FM020300 34014G23KT 3SM BR OVC003
     FM020500 35011KT 3SM BR OVC003=



000
FTUS46 KPQR 012058 AAB
TAFONP
TAF AMD
KONP 012058Z 0121/0218 36015G26KT 5SM BR BKN003
      TEMPO 0121/0201 2SM BR OVC003
     FM020300 34014G23KT 3SM BR OVC003
     FM020500 35011KT 3SM BR OVC003=



000
FTUS46 KPQR 011753 AAA
TAFONP
TAF AMD
KONP 011753Z 0118/0218 36014G21KT 5SM BR BKN002
     FM012000 35015G27KT P6SM SCT003
     FM020200 34017G25KT 4SM BR OVC003
     FM020500 35012KT 5SM BR OVC005=



000
FTUS46 KPQR 011753 AAA
TAFONP
TAF AMD
KONP 011753Z 0118/0218 36014G21KT 5SM BR BKN002
     FM012000 35015G27KT P6SM SCT003
     FM020200 34017G25KT 4SM BR OVC003
     FM020500 35012KT 5SM BR OVC005=



000
FTUS46 KPQR 011753 AAA
TAFONP
TAF AMD
KONP 011753Z 0118/0218 36014G21KT 5SM BR BKN002
     FM012000 35015G27KT P6SM SCT003
     FM020200 34017G25KT 4SM BR OVC003
     FM020500 35012KT 5SM BR OVC005=



000
FTUS46 KPQR 011738
TAFAST
TAF
KAST 011738Z 0118/0218 32011KT P6SM FEW010
     FM012200 32014G22KT P6SM SKC
     FM020400 30009KT P6SM SCT008
     FM020600 29005KT 6SM BR OVC008=



000
FTUS46 KPQR 011738
TAFONP
TAF
KONP 011738Z 0118/0218 36014G21KT P6SM SCT004
     FM012100 35017G25KT P6SM SKC
     FM020200 34017G25KT 4SM BR OVC003
     FM020500 35012KT 5SM BR OVC005=



000
FTUS46 KPQR 011738
TAFTTD
TAF
KTTD 011738Z 0118/0218 28006KT P6SM SKC
     FM020600 VRB03KT P6SM SKC=



000
FTUS46 KPQR 011738
TAFPDX
TAF
KPDX 011738Z 0118/0218 29006KT P6SM SKC
     FM012200 32013KT P6SM SKC
     FM020600 32007KT P6SM SKC=



000
FTUS46 KPQR 011738
TAFONP
TAF
KONP 011738Z 0118/0218 36014G21KT P6SM SCT004
     FM012100 35017G25KT P6SM SKC
     FM020200 34017G25KT 4SM BR OVC003
     FM020500 35012KT 5SM BR OVC005=



000
FTUS46 KPQR 011738
TAFAST
TAF
KAST 011738Z 0118/0218 32011KT P6SM FEW010
     FM012200 32014G22KT P6SM SKC
     FM020400 30009KT P6SM SCT008
     FM020600 29005KT 6SM BR OVC008=



000
FTUS46 KPQR 011738
TAFPDX
TAF
KPDX 011738Z 0118/0218 29006KT P6SM SKC
     FM012200 32013KT P6SM SKC
     FM020600 32007KT P6SM SKC=



000
FTUS46 KPQR 011738
TAFSLE
TAF
KSLE 011738Z 0118/0218 35007KT P6SM SKC
     FM012000 01011KT P6SM SKC
     FM012200 01012G19KT P6SM SKC
     FM020400 34006KT P6SM SKC=



000
FTUS46 KPQR 011738
TAFEUG
TAF
KEUG 011738Z 0118/0218 02010KT P6SM SKC
     FM012000 01013G20KT P6SM SKC
     FM020400 36007KT P6SM SKC=



000
FTUS46 KPQR 011738
TAFEUG
TAF
KEUG 011738Z 0118/0218 02010KT P6SM SKC
     FM012000 01013G20KT P6SM SKC
     FM020400 36007KT P6SM SKC=



000
FTUS46 KPQR 011738
TAFTTD
TAF
KTTD 011738Z 0118/0218 28006KT P6SM SKC
     FM020600 VRB03KT P6SM SKC=



000
FTUS46 KPQR 011738
TAFHIO
TAF
KHIO 011738Z 0118/0218 29004KT P6SM SKC
     FM012300 34010KT P6SM SKC
     FM020600 VRB03KT P6SM SKC=



000
FTUS46 KPQR 011738
TAFHIO
TAF
KHIO 011738Z 0118/0218 29004KT P6SM SKC
     FM012300 34010KT P6SM SKC
     FM020600 VRB03KT P6SM SKC=



000
FTUS46 KPQR 011738
TAFSLE
TAF
KSLE 011738Z 0118/0218 35007KT P6SM SKC
     FM012000 01011KT P6SM SKC
     FM012200 01012G19KT P6SM SKC
     FM020400 34006KT P6SM SKC=



000
FTUS46 KPQR 011509 AAA
TAFPDX
TAF AMD
KPDX 011509Z 0115/0212 30006KT P6SM SKC
     FM012200 32013KT P6SM SKC
     FM020600 32007KT P6SM SKC=



000
FTUS46 KPQR 011509 AAA
TAFPDX
TAF AMD
KPDX 011509Z 0115/0212 30006KT P6SM SKC
     FM012200 32013KT P6SM SKC
     FM020600 32007KT P6SM SKC=



000
FTUS46 KPQR 011135
TAFSLE
TAF
KSLE 011135Z 0112/0212 35005KT P6SM SKC
     FM012000 01010KT P6SM SKC
     FM012200 36012G19KT P6SM SKC
     FM020500 35005KT P6SM SKC=



000
FTUS46 KPQR 011135
TAFPDX
TAF
KPDX 011135Z 0112/0212 32006KT P6SM SKC
     FM012100 30013KT P6SM SKC
     FM020800 31005KT P6SM SKC=



000
FTUS46 KPQR 011135
TAFAST
TAF
KAST 011135Z 0112/0212 29004KT 6SM BR OVC010
     FM011600 32007KT P6SM OVC012
     FM011900 32011KT P6SM FEW012
     FM012200 32014G22KT P6SM SKC
     FM020400 30009KT P6SM SCT008
     FM020600 29005KT 6SM BR OVC008=



000
FTUS46 KPQR 011135
TAFPDX
TAF
KPDX 011135Z 0112/0212 32006KT P6SM SKC
     FM012100 30013KT P6SM SKC
     FM020800 31005KT P6SM SKC=



000
FTUS46 KPQR 011135
TAFTTD
TAF
KTTD 011135Z 0112/0212 00000KT P6SM SKC
     FM011900 28008KT P6SM SKC
     FM020600 VRB03KT P6SM SKC=



000
FTUS46 KPQR 011135
TAFSLE
TAF
KSLE 011135Z 0112/0212 35005KT P6SM SKC
     FM012000 01010KT P6SM SKC
     FM012200 36012G19KT P6SM SKC
     FM020500 35005KT P6SM SKC=



000
FTUS46 KPQR 011135
TAFAST
TAF
KAST 011135Z 0112/0212 29004KT 6SM BR OVC010
     FM011600 32007KT P6SM OVC012
     FM011900 32011KT P6SM FEW012
     FM012200 32014G22KT P6SM SKC
     FM020400 30009KT P6SM SCT008
     FM020600 29005KT 6SM BR OVC008=



000
FTUS46 KPQR 011135
TAFTTD
TAF
KTTD 011135Z 0112/0212 00000KT P6SM SKC
     FM011900 28008KT P6SM SKC
     FM020600 VRB03KT P6SM SKC=



000
FTUS46 KPQR 011135
TAFEUG
TAF
KEUG 011135Z 0112/0212 02005KT P6SM SKC
     FM012000 02013G20KT P6SM SKC
     FM020500 36006KT P6SM SKC=



000
FTUS46 KPQR 011135
TAFONP
TAF
KONP 011135Z 0112/0212 36003KT P6SM FEW002
     FM011900 36014G21KT 6SM HZ SKC
     FM012100 35017G25KT P6SM SKC
     FM020200 34017G25KT 4SM BR OVC003
     FM020500 35012KT 5SM BR OVC005=



000
FTUS46 KPQR 011135
TAFHIO
TAF
KHIO 011135Z 0112/0212 VRB03KT P6SM SKC
     FM012100 34010KT P6SM SKC
     FM020600 VRB03KT P6SM SKC=



000
FTUS46 KPQR 011135
TAFEUG
TAF
KEUG 011135Z 0112/0212 02005KT P6SM SKC
     FM012000 02013G20KT P6SM SKC
     FM020500 36006KT P6SM SKC=



000
FTUS46 KPQR 011135
TAFSLE
TAF
KSLE 011135Z 0112/0212 35005KT P6SM SKC
     FM012000 01010KT P6SM SKC
     FM012200 36012G19KT P6SM SKC
     FM020500 35005KT P6SM SKC=



000
FTUS46 KPQR 011135
TAFAST
TAF
KAST 011135Z 0112/0212 29004KT 6SM BR OVC010
     FM011600 32007KT P6SM OVC012
     FM011900 32011KT P6SM FEW012
     FM012200 32014G22KT P6SM SKC
     FM020400 30009KT P6SM SCT008
     FM020600 29005KT 6SM BR OVC008=



000
FTUS46 KPQR 011135
TAFPDX
TAF
KPDX 011135Z 0112/0212 32006KT P6SM SKC
     FM012100 30013KT P6SM SKC
     FM020800 31005KT P6SM SKC=



000
FTUS46 KPQR 011135
TAFTTD
TAF
KTTD 011135Z 0112/0212 00000KT P6SM SKC
     FM011900 28008KT P6SM SKC
     FM020600 VRB03KT P6SM SKC=



000
FTUS46 KPQR 011135
TAFHIO
TAF
KHIO 011135Z 0112/0212 VRB03KT P6SM SKC
     FM012100 34010KT P6SM SKC
     FM020600 VRB03KT P6SM SKC=



000
FTUS46 KPQR 011135
TAFONP
TAF
KONP 011135Z 0112/0212 36003KT P6SM FEW002
     FM011900 36014G21KT 6SM HZ SKC
     FM012100 35017G25KT P6SM SKC
     FM020200 34017G25KT 4SM BR OVC003
     FM020500 35012KT 5SM BR OVC005=



000
FTUS46 KPQR 011135
TAFONP
TAF
KONP 011135Z 0112/0212 36003KT P6SM FEW002
     FM011900 36014G21KT 6SM HZ SKC
     FM012100 35017G25KT P6SM SKC
     FM020200 34017G25KT 4SM BR OVC003
     FM020500 35012KT 5SM BR OVC005=



000
FTUS46 KPQR 011135
TAFHIO
TAF
KHIO 011135Z 0112/0212 VRB03KT P6SM SKC
     FM012100 34010KT P6SM SKC
     FM020600 VRB03KT P6SM SKC=



000
FTUS46 KPQR 011135
TAFSLE
TAF
KSLE 011135Z 0112/0212 35005KT P6SM SKC
     FM012000 01010KT P6SM SKC
     FM012200 36012G19KT P6SM SKC
     FM020500 35005KT P6SM SKC=



000
FTUS46 KPQR 011135
TAFPDX
TAF
KPDX 011135Z 0112/0212 32006KT P6SM SKC
     FM012100 30013KT P6SM SKC
     FM020800 31005KT P6SM SKC=



000
FTUS46 KPQR 011135
TAFHIO
TAF
KHIO 011135Z 0112/0212 VRB03KT P6SM SKC
     FM012100 34010KT P6SM SKC
     FM020600 VRB03KT P6SM SKC=



000
FTUS46 KPQR 011135
TAFEUG
TAF
KEUG 011135Z 0112/0212 02005KT P6SM SKC
     FM012000 02013G20KT P6SM SKC
     FM020500 36006KT P6SM SKC=



000
FTUS46 KPQR 011135
TAFONP
TAF
KONP 011135Z 0112/0212 36003KT P6SM FEW002
     FM011900 36014G21KT 6SM HZ SKC
     FM012100 35017G25KT P6SM SKC
     FM020200 34017G25KT 4SM BR OVC003
     FM020500 35012KT 5SM BR OVC005=



000
FTUS46 KPQR 011135
TAFTTD
TAF
KTTD 011135Z 0112/0212 00000KT P6SM SKC
     FM011900 28008KT P6SM SKC
     FM020600 VRB03KT P6SM SKC=



000
FTUS46 KPQR 011135
TAFAST
TAF
KAST 011135Z 0112/0212 29004KT 6SM BR OVC010
     FM011600 32007KT P6SM OVC012
     FM011900 32011KT P6SM FEW012
     FM012200 32014G22KT P6SM SKC
     FM020400 30009KT P6SM SCT008
     FM020600 29005KT 6SM BR OVC008=



000
FTUS46 KPQR 011135
TAFEUG
TAF
KEUG 011135Z 0112/0212 02005KT P6SM SKC
     FM012000 02013G20KT P6SM SKC
     FM020500 36006KT P6SM SKC=



000
FTUS46 KPQR 010914 AAA
TAFONP
TAF AMD
KONP 010914Z 0109/0206 36003KT 5SM BR SCT002
      TEMPO 0109/0110 3SM BR BKN002
     FM012000 36012G22KT 6SM HZ SCT005
     FM012100 35015G25KT P6SM SCT005=



000
FTUS46 KPQR 010914 AAA
TAFONP
TAF AMD
KONP 010914Z 0109/0206 36003KT 5SM BR SCT002
      TEMPO 0109/0110 3SM BR BKN002
     FM012000 36012G22KT 6SM HZ SCT005
     FM012100 35015G25KT P6SM SCT005=



000
FTUS46 KPQR 010855 AAA
TAFPDX
TAF AMD
KPDX 010855Z 0109/0206 32006KT P6SM SKC
     FM012100 30013KT P6SM SKC=



000
FTUS46 KPQR 010855 AAA
TAFPDX
TAF AMD
KPDX 010855Z 0109/0206 32006KT P6SM SKC
     FM012100 30013KT P6SM SKC=



000
FTUS46 KPQR 010855 AAA
TAFPDX
TAF AMD
KPDX 010855Z 0109/0206 32006KT P6SM SKC
     FM012100 30013KT P6SM SKC=



000
FTUS46 KPQR 010855 AAA
TAFPDX
TAF AMD
KPDX 010855Z 0109/0206 32006KT P6SM SKC
     FM012100 30013KT P6SM SKC=



000
FTUS46 KPQR 010703 AAA
TAFAST
TAF AMD
KAST 010703Z 0107/0206 29006KT P6SM SCT008
     FM010900 29006KT P6SM BKN007
     FM011200 31004KT 6SM BR OVC007
     FM011500 32009KT P6SM OVC015
     FM011900 32012G18KT P6SM FEW015=



000
FTUS46 KPQR 010530
TAFEUG
TAF
KEUG 010530Z 0106/0206 01007KT P6SM SKC
     FM010800 VRB03KT P6SM SKC
     FM011900 01012KT P6SM SKC=



000
FTUS46 KPQR 010530
TAFSLE
TAF
KSLE 010530Z 0106/0206 33007KT P6SM SKC
     FM010800 VRB03KT P6SM SKC
     FM012000 36010KT P6SM SKC
     FM012100 36012G22KT P6SM SKC=



000
FTUS46 KPQR 010530
TAFPDX
TAF
KPDX 010530Z 0106/0206 30011KT P6SM SKC
     FM010700 31006KT P6SM SKC
     FM011900 30013KT P6SM SKC=



000
FTUS46 KPQR 010530
TAFONP
TAF
KONP 010530Z 0106/0206 36011KT 4SM BR OVC003
     FM011300 36004KT 1/2SM FG OVC003
     FM012000 36012G22KT 6SM BR BKN005
     FM012100 34015G25KT P6SM SCT005=



000
FTUS46 KPQR 010530
TAFTTD
TAF
KTTD 010530Z 0106/0206 00000KT P6SM SKC
     FM011900 31005KT P6SM SKC=



000
FTUS46 KPQR 010530
TAFAST
TAF
KAST 010530Z 0106/0206 33011KT P6SM SCT015
     FM010700 32006KT P6SM BKN010
     FM011000 31004KT 6SM BR OVC007
     FM011500 32009KT P6SM OVC015
     FM011900 32012G18KT P6SM FEW015=



000
FTUS46 KPQR 010530
TAFHIO
TAF
KHIO 010530Z 0106/0206 31011KT P6SM SKC
     FM010800 VRB03KT P6SM SKC
     FM011900 35008KT P6SM SKC=



000
FTUS46 KPQR 010530
TAFSLE
TAF
KSLE 010530Z 0106/0206 33007KT P6SM SKC
     FM010800 VRB03KT P6SM SKC
     FM012000 36010KT P6SM SKC
     FM012100 36012G22KT P6SM SKC=



000
FTUS46 KPQR 010530
TAFPDX
TAF
KPDX 010530Z 0106/0206 30011KT P6SM SKC
     FM010700 31006KT P6SM SKC
     FM011900 30013KT P6SM SKC=



000
FTUS46 KPQR 010530
TAFTTD
TAF
KTTD 010530Z 0106/0206 00000KT P6SM SKC
     FM011900 31005KT P6SM SKC=



000
FTUS46 KPQR 010530
TAFONP
TAF
KONP 010530Z 0106/0206 36011KT 4SM BR OVC003
     FM011300 36004KT 1/2SM FG OVC003
     FM012000 36012G22KT 6SM BR BKN005
     FM012100 34015G25KT P6SM SCT005=



000
FTUS46 KPQR 010530
TAFEUG
TAF
KEUG 010530Z 0106/0206 01007KT P6SM SKC
     FM010800 VRB03KT P6SM SKC
     FM011900 01012KT P6SM SKC=



000
FTUS46 KPQR 010530
TAFPDX
TAF
KPDX 010530Z 0106/0206 30011KT P6SM SKC
     FM010700 31006KT P6SM SKC
     FM011900 30013KT P6SM SKC=



000
FTUS46 KPQR 010530
TAFTTD
TAF
KTTD 010530Z 0106/0206 00000KT P6SM SKC
     FM011900 31005KT P6SM SKC=



000
FTUS46 KPQR 010530
TAFAST
TAF
KAST 010530Z 0106/0206 33011KT P6SM SCT015
     FM010700 32006KT P6SM BKN010
     FM011000 31004KT 6SM BR OVC007
     FM011500 32009KT P6SM OVC015
     FM011900 32012G18KT P6SM FEW015=



000
FTUS46 KPQR 010530
TAFEUG
TAF
KEUG 010530Z 0106/0206 01007KT P6SM SKC
     FM010800 VRB03KT P6SM SKC
     FM011900 01012KT P6SM SKC=



000
FTUS46 KPQR 010530
TAFSLE
TAF
KSLE 010530Z 0106/0206 33007KT P6SM SKC
     FM010800 VRB03KT P6SM SKC
     FM012000 36010KT P6SM SKC
     FM012100 36012G22KT P6SM SKC=



000
FTUS46 KPQR 010530
TAFHIO
TAF
KHIO 010530Z 0106/0206 31011KT P6SM SKC
     FM010800 VRB03KT P6SM SKC
     FM011900 35008KT P6SM SKC=



000
FTUS46 KPQR 010530
TAFONP
TAF
KONP 010530Z 0106/0206 36011KT 4SM BR OVC003
     FM011300 36004KT 1/2SM FG OVC003
     FM012000 36012G22KT 6SM BR BKN005
     FM012100 34015G25KT P6SM SCT005=



000
FTUS46 KPQR 010530
TAFAST
TAF
KAST 010530Z 0106/0206 33011KT P6SM SCT015
     FM010700 32006KT P6SM BKN010
     FM011000 31004KT 6SM BR OVC007
     FM011500 32009KT P6SM OVC015
     FM011900 32012G18KT P6SM FEW015=



000
FTUS46 KPQR 010530
TAFPDX
TAF
KPDX 010530Z 0106/0206 30011KT P6SM SKC
     FM010700 31006KT P6SM SKC
     FM011900 30013KT P6SM SKC=



000
FTUS46 KPQR 010530
TAFSLE
TAF
KSLE 010530Z 0106/0206 33007KT P6SM SKC
     FM010800 VRB03KT P6SM SKC
     FM012000 36010KT P6SM SKC
     FM012100 36012G22KT P6SM SKC=



000
FTUS46 KPQR 010530
TAFEUG
TAF
KEUG 010530Z 0106/0206 01007KT P6SM SKC
     FM010800 VRB03KT P6SM SKC
     FM011900 01012KT P6SM SKC=



000
FTUS46 KPQR 010530
TAFAST
TAF
KAST 010530Z 0106/0206 33011KT P6SM SCT015
     FM010700 32006KT P6SM BKN010
     FM011000 31004KT 6SM BR OVC007
     FM011500 32009KT P6SM OVC015
     FM011900 32012G18KT P6SM FEW015=



000
FTUS46 KPQR 010530
TAFONP
TAF
KONP 010530Z 0106/0206 36011KT 4SM BR OVC003
     FM011300 36004KT 1/2SM FG OVC003
     FM012000 36012G22KT 6SM BR BKN005
     FM012100 34015G25KT P6SM SCT005=



000
FTUS46 KPQR 010530
TAFTTD
TAF
KTTD 010530Z 0106/0206 00000KT P6SM SKC
     FM011900 31005KT P6SM SKC=



000
FTUS46 KPQR 010530
TAFHIO
TAF
KHIO 010530Z 0106/0206 31011KT P6SM SKC
     FM010800 VRB03KT P6SM SKC
     FM011900 35008KT P6SM SKC=



000
FTUS46 KPQR 010530
TAFHIO
TAF
KHIO 010530Z 0106/0206 31011KT P6SM SKC
     FM010800 VRB03KT P6SM SKC
     FM011900 35008KT P6SM SKC=



000
FTUS46 KPQR 010249 AAA
TAFPDX
TAF AMD
KPDX 010249Z 0103/0124 30014KT P6SM SKC
     FM010700 31006KT P6SM SKC
     FM011900 30011KT P6SM SKC=



    US Dept of Commerce
    National Oceanic and Atmospheric Administration
    National Weather Service
    1325 East West Highway
    Silver Spring, MD 20910
    Page Author: NWS Internet Services Team
Disclaimer
Information Quality
Credits
Glossary
Privacy Policy
Freedom of Information Act (FOIA)
About Us
Career Opportunities